aviador You're here:

SBGR Decoded Metar

SAO PAULO in BRAZIL
Report Time2018-02-21 03:00:00
UTC Time2018-02-21 04:49:30
Flight Rules Old
Wind330° at 11 kt
W.Decomp.*RWY 27: 1.9 kt HW 10.8 kt RCW
W.Rank330° ranks 18
Current wind is above 330° avg. (7.6)
Visibility9999 m
Phenomena:N/A
Clouds:Scattered 023 Hf
Broken 100 Hf
Expected CloudBase > 1,200 ft AGL from Temp-Dew spread
Ceiling10,000 ft
Temp24°C (ISA +14)
Dew Point21°C (83% RH)
QNH1012 hPa
Density Alt4,439 ft
Elevation2,461 ft
Report Wrong Elevation
Raw Report
METAR SBGR 210300Z 33011KT 9999 SCT023 BKN100 24/21 Q1012=

Extra information for SBGR:More info

Metar Taf Metar & Taf Last 4 Metars F.Rules Stats Wind Profile Meteogram Temp Stats Airport Information Weather charts Add Link Nearby VenuesMetar ALERT Operation Metar Decoded Social comments